Time;durP1;ratioP1;P1;durP2;ratioP2;P2;SDS_P1;SDS_P2;PMS_P1;PMS_P2;Temp;Humidity;BMP_temperature;BMP_pressure;BME280_temperature;BME280_humidity;BME280_pressure;Samples;Min_cycle;Max_cycle;Signal;HPM_P1;HPM_P2
2022/03/07 00:01:58;;;;;;;10.73;9.63;;;1.80;84.50;;;;;;6130725;23;20639;-86
2022/03/07 00:04:24;;;;;;;10.30;9.13;;;1.80;84.90;;;;;;6124483;23;20267;-86
2022/03/07 00:06:51;;;;;;;11.10;9.80;;;1.90;85.70;;;;;;6128825;23;20482;-86
2022/03/07 00:09:20;;;;;;;11.90;10.13;;;1.90;84.70;;;;;;6127421;23;20160;-86
2022/03/07 00:11:45;;;;;;;11.10;9.73;;;2.00;84.00;;;;;;6129310;23;20395;-86
2022/03/07 00:14:12;;;;;;;10.73;9.77;;;1.90;83.40;;;;;;6126428;23;20756;-87
2022/03/07 00:16:37;;;;;;;10.30;9.30;;;1.80;84.00;;;;;;6126265;23;20169;-86
2022/03/07 00:19:03;;;;;;;10.80;8.73;;;1.80;84.10;;;;;;6127066;23;20747;-86
2022/03/07 00:21:32;;;;;;;10.17;8.97;;;1.80;83.90;;;;;;6127339;23;20267;-86
2022/03/07 00:23:58;;;;;;;10.60;9.50;;;1.70;83.60;;;;;;6125795;23;20384;-86
2022/03/07 00:26:24;;;;;;;10.20;8.53;;;1.60;83.80;;;;;;6128433;23;21019;-86
2022/03/07 00:28:49;;;;;;;10.17;8.40;;;1.60;83.60;;;;;;6126219;23;20881;-85
2022/03/07 00:31:17;;;;;;;10.70;7.63;;;1.60;84.10;;;;;;6124553;23;20779;-86
2022/03/07 00:33:44;;;;;;;9.40;8.50;;;1.60;83.70;;;;;;6126674;23;20275;-85
2022/03/07 00:36:09;;;;;;;9.37;8.30;;;1.50;84.50;;;;;;6125139;23;20391;-85
2022/03/07 00:38:35;;;;;;;9.70;8.73;;;1.40;85.60;;;;;;6125623;23;20492;-86
2022/03/07 00:41:01;;;;;;;9.13;8.20;;;1.40;85.60;;;;;;6128307;23;20535;-85
2022/03/07 00:43:27;;;;;;;10.07;9.10;;;1.30;85.80;;;;;;6129355;23;20328;-85
2022/03/07 00:45:53;;;;;;;9.30;7.60;;;1.40;85.50;;;;;;6129197;23;20379;-86
2022/03/07 00:48:19;;;;;;;8.33;7.53;;;1.30;85.10;;;;;;6125194;23;20486;-85
2022/03/07 00:50:47;;;;;;;10.40;8.60;;;1.40;85.70;;;;;;6122865;23;20900;-86
2022/03/07 00:53:21;;;;;;;10.27;7.93;;;1.40;85.80;;;;;;6127389;23;20384;-85
2022/03/07 00:55:47;;;;;;;9.37;7.87;;;1.30;86.60;;;;;;6129320;23;20391;-85
2022/03/07 00:58:28;;;;;;;10.57;8.00;;;1.40;86.70;;;;;;6130911;23;20383;-85
2022/03/07 01:00:54;;;;;;;8.53;7.47;;;1.40;86.10;;;;;;6126734;23;20463;-86
2022/03/07 01:03:20;;;;;;;8.37;7.57;;;1.20;87.20;;;;;;6123670;23;20427;-86
2022/03/07 01:05:46;;;;;;;9.40;7.60;;;1.20;87.90;;;;;;6123230;23;20603;-85
2022/03/07 01:08:12;;;;;;;9.40;8.30;;;1.30;87.10;;;;;;6123998;23;20459;-85
2022/03/07 01:10:38;;;;;;;9.53;8.37;;;1.30;86.10;;;;;;6127372;23;20862;-86
2022/03/07 01:13:05;;;;;;;12.27;8.17;;;1.20;86.90;;;;;;6131361;23;20156;-86
2022/03/07 01:15:31;;;;;;;11.80;7.80;;;1.20;87.10;;;;;;6127812;23;20671;-86
2022/03/07 01:17:59;;;;;;;9.23;7.67;;;1.20;87.50;;;;;;6126256;23;20383;-86
2022/03/07 01:20:25;;;;;;;8.57;7.40;;;1.20;88.10;;;;;;6125960;23;20311;-86
2022/03/07 01:22:53;;;;;;;8.70;7.30;;;1.20;87.70;;;;;;6127005;23;20802;-85
2022/03/07 01:25:19;;;;;;;10.00;7.57;;;1.10;87.60;;;;;;6128334;23;20938;-85
2022/03/07 01:27:46;;;;;;;8.63;7.73;;;1.10;88.70;;;;;;6128408;23;20482;-85
2022/03/07 01:30:11;;;;;;;7.77;6.97;;;1.10;87.60;;;;;;6129882;23;20215;-85
2022/03/07 01:32:37;;;;;;;7.40;6.70;;;1.10;88.30;;;;;;6128479;23;20411;-85
2022/03/07 01:35:04;;;;;;;9.07;7.60;;;1.00;88.20;;;;;;6127837;23;20619;-85
2022/03/07 01:37:30;;;;;;;7.83;7.00;;;0.80;87.80;;;;;;6127921;23;20168;-85
2022/03/07 01:39:55;;;;;;;7.77;7.00;;;0.80;88.20;;;;;;6127739;23;20423;-85
2022/03/07 01:42:21;;;;;;;10.37;7.53;;;0.90;88.00;;;;;;6127249;23;20596;-85
2022/03/07 01:44:47;;;;;;;9.00;7.63;;;0.90;88.60;;;;;;6127958;23;20530;-85
2022/03/07 01:47:12;;;;;;;8.57;7.33;;;0.70;90.00;;;;;;6130549;23;20250;-85
2022/03/07 01:49:38;;;;;;;8.33;7.40;;;0.70;88.70;;;;;;6126987;23;20587;-86
2022/03/07 01:52:07;;;;;;;7.70;7.00;;;0.80;88.20;;;;;;6126759;23;20644;-86
2022/03/07 01:54:33;;;;;;;7.47;6.43;;;0.80;89.40;;;;;;6127528;23;20405;-84
2022/03/07 01:56:58;;;;;;;11.30;7.83;;;0.70;88.30;;;;;;6126135;23;20395;-85
2022/03/07 01:59:27;;;;;;;8.23;7.00;;;0.70;88.80;;;;;;6129474;23;20159;-85
2022/03/07 02:01:54;;;;;;;8.60;7.70;;;0.70;88.60;;;;;;6129913;23;20192;-84
2022/03/07 02:04:20;;;;;;;8.77;7.50;;;0.70;88.40;;;;;;6124908;23;20543;-85
2022/03/07 02:06:46;;;;;;;8.90;7.70;;;0.60;88.60;;;;;;6126935;23;20973;-85
2022/03/07 02:09:15;;;;;;;8.40;6.77;;;0.50;89.40;;;;;;6129117;23;20554;-84
2022/03/07 02:11:41;;;;;;;8.93;7.33;;;0.60;89.00;;;;;;6127829;23;20483;-85
2022/03/07 02:14:19;;;;;;;7.43;6.70;;;0.70;89.70;;;;;;6129505;23;20386;-85
2022/03/07 02:16:46;;;;;;;8.50;7.43;;;0.70;89.50;;;;;;6130239;23;20814;-85
2022/03/07 02:19:13;;;;;;;8.10;6.93;;;0.60;88.90;;;;;;6128116;23;20475;-84
2022/03/07 02:21:49;;;;;;;8.47;7.17;;;0.60;88.80;;;;;;6124935;23;20978;-85
2022/03/07 02:24:16;;;;;;;7.97;7.27;;;0.50;89.10;;;;;;6129725;23;20485;-84
2022/03/07 02:26:43;;;;;;;9.63;8.17;;;0.30;89.10;;;;;;6126683;23;20450;-84
2022/03/07 02:29:09;;;;;;;8.57;7.60;;;0.20;89.80;;;;;;6131555;23;20443;-84
2022/03/07 02:31:36;;;;;;;8.13;6.77;;;0.10;90.20;;;;;;6130363;23;20415;-85
2022/03/07 02:34:03;;;;;;;9.33;7.00;;;0.00;90.60;;;;;;6125593;23;20487;-85
2022/03/07 02:36:31;;;;;;;10.10;7.30;;;0.10;90.50;;;;;;6128776;23;20400;-85
2022/03/07 02:38:57;;;;;;;7.80;6.57;;;0.10;90.30;;;;;;6127179;23;20386;-86
2022/03/07 02:41:25;;;;;;;7.47;6.63;;;0.10;90.60;;;;;;6128555;23;20439;-85
2022/03/07 02:43:50;;;;;;;9.47;7.27;;;0.10;90.70;;;;;;6130603;23;20882;-85
2022/03/07 02:46:16;;;;;;;9.23;7.43;;;0.00;90.50;;;;;;6131518;23;20396;-84
2022/03/07 02:48:41;;;;;;;8.57;7.00;;;0.00;90.70;;;;;;6127268;23;20164;-85
2022/03/07 02:51:07;;;;;;;9.10;7.67;;;0.00;90.80;;;;;;6129219;23;20582;-85
2022/03/07 02:53:33;;;;;;;8.87;7.43;;;-0.10;90.80;;;;;;6127591;23;20220;-84
2022/03/07 02:55:59;;;;;;;8.17;7.37;;;-0.20;91.00;;;;;;6127011;23;20407;-84
2022/03/07 02:58:24;;;;;;;8.30;7.00;;;-0.20;91.10;;;;;;6125782;23;20416;-84
2022/03/07 03:00:50;;;;;;;9.33;7.00;;;-0.30;91.00;;;;;;6131814;23;20193;-84
2022/03/07 03:03:15;;;;;;;10.20;8.13;;;-0.30;91.00;;;;;;6128544;23;20165;-84
2022/03/07 03:05:41;;;;;;;7.73;6.90;;;-0.30;91.40;;;;;;6122326;23;20192;-84
2022/03/07 03:08:07;;;;;;;8.77;7.50;;;-0.40;91.50;;;;;;6127354;23;20543;-84
2022/03/07 03:10:33;;;;;;;9.63;7.43;;;-0.40;91.90;;;;;;6125993;23;20167;-84
2022/03/07 03:12:58;;;;;;;8.40;7.40;;;-0.50;92.00;;;;;;6125307;23;20157;-84
2022/03/07 03:15:24;;;;;;;10.17;8.20;;;-0.50;92.30;;;;;;6129118;23;20866;-83
2022/03/07 03:17:50;;;;;;;8.57;7.57;;;-0.50;92.30;;;;;;6127602;23;20164;-83
2022/03/07 03:20:18;;;;;;;8.27;7.43;;;-0.60;92.30;;;;;;6127735;23;21012;-84
2022/03/07 03:22:48;;;;;;;8.63;7.40;;;-0.50;92.10;;;;;;6125434;23;20691;-84
2022/03/07 03:25:16;;;;;;;9.55;8.13;;;-0.40;91.70;;;;;;6125512;23;20391;-84
2022/03/07 03:27:43;;;;;;;8.50;6.97;;;-0.50;91.60;;;;;;6128596;23;20184;-86
2022/03/07 03:30:10;;;;;;;13.15;8.32;;;-0.50;92.20;;;;;;6128408;23;20392;-85
2022/03/07 03:32:36;;;;;;;9.47;7.83;;;-0.60;92.50;;;;;;6130147;23;20263;-85
2022/03/07 03:35:03;;;;;;;9.20;7.53;;;-0.60;92.30;;;;;;6130450;23;20507;-84
2022/03/07 03:37:28;;;;;;;13.30;8.17;;;-0.50;92.30;;;;;;6128355;23;20619;-84
2022/03/07 03:39:54;;;;;;;9.30;7.47;;;-0.60;92.20;;;;;;6125186;23;21057;-84
2022/03/07 03:42:21;;;;;;;11.97;8.43;;;-0.60;92.20;;;;;;6126008;23;20164;-84
2022/03/07 03:44:48;;;;;;;9.40;7.40;;;-0.50;92.30;;;;;;6126045;23;20524;-85
2022/03/07 03:47:13;;;;;;;9.63;7.77;;;-0.60;92.30;;;;;;6131335;23;20396;-85
2022/03/07 03:49:39;;;;;;;9.07;7.23;;;-0.70;92.60;;;;;;6128746;23;20402;-85
2022/03/07 03:52:06;;;;;;;10.47;8.27;;;-0.60;92.70;;;;;;6128181;23;20247;-85
2022/03/07 03:54:32;;;;;;;10.63;7.90;;;-0.60;92.80;;;;;;6133011;23;20257;-86
2022/03/07 03:56:57;;;;;;;10.37;8.43;;;-0.50;93.10;;;;;;6129425;23;20527;-86
2022/03/07 03:59:23;;;;;;;9.70;8.20;;;-0.50;92.70;;;;;;6127215;23;20495;-86
2022/03/07 04:01:51;;;;;;;12.37;8.30;;;-0.60;92.80;;;;;;6126968;23;20915;-85
2022/03/07 04:04:17;;;;;;;11.93;8.30;;;-0.60;92.90;;;;;;6132730;23;20183;-86
2022/03/07 04:06:44;;;;;;;10.60;8.00;;;-0.60;93.00;;;;;;6126857;23;20164;-86
2022/03/07 04:09:17;;;;;;;11.90;7.95;;;-0.70;93.10;;;;;;6128510;23;20376;-85
2022/03/07 04:11:44;;;;;;;11.20;9.10;;;-0.50;93.00;;;;;;6127287;23;20163;-85
2022/03/07 04:14:10;;;;;;;11.40;9.60;;;-0.60;92.90;;;;;;6124132;23;20591;-84
2022/03/07 04:16:38;;;;;;;10.53;8.10;;;-0.60;93.10;;;;;;6118520;23;20400;-84
2022/03/07 04:19:05;;;;;;;10.17;8.37;;;-0.60;93.30;;;;;;6127212;23;20384;-85
2022/03/07 04:21:31;;;;;;;10.30;8.13;;;-0.70;93.20;;;;;;6123504;23;20440;-84
2022/03/07 04:23:57;;;;;;;11.70;8.90;;;-0.60;93.30;;;;;;6125776;23;20461;-85
2022/03/07 04:26:42;;;;;;;11.90;9.17;;;-0.60;93.30;;;;;;6127353;23;20176;-84
2022/03/07 04:29:08;;;;;;;10.30;7.83;;;-0.50;93.40;;;;;;6132687;23;20490;-85
2022/03/07 04:31:35;;;;;;;10.95;8.77;;;-0.70;93.40;;;;;;6125984;23;20421;-85
2022/03/07 04:34:02;;;;;;;9.70;8.17;;;-0.80;94.00;;;;;;6129456;23;20848;-84
2022/03/07 04:36:28;;;;;;;11.57;8.20;;;-0.80;94.30;;;;;;6126388;23;20510;-85
2022/03/07 04:38:54;;;;;;;10.55;8.60;;;-0.80;94.30;;;;;;6126828;23;20251;-85
2022/03/07 04:41:19;;;;;;;10.77;9.33;;;-0.90;94.30;;;;;;6129377;23;20188;-85
2022/03/07 04:43:45;;;;;;;14.23;9.60;;;-0.90;94.50;;;;;;6128110;23;20164;-84
2022/03/07 04:46:11;;;;;;;10.53;8.63;;;-0.90;94.80;;;;;;6129136;23;20631;-85
2022/03/07 04:48:37;;;;;;;12.53;9.00;;;-0.90;95.10;;;;;;6127102;23;20597;-84
2022/03/07 04:51:03;;;;;;;11.43;9.15;;;-1.00;95.20;;;;;;6129087;23;20160;-85
2022/03/07 04:53:28;;;;;;;11.33;8.67;;;-1.00;95.40;;;;;;6124318;23;20211;-86
2022/03/07 04:55:56;;;;;;;13.23;9.90;;;-1.10;95.90;;;;;;6128830;23;20876;-85
2022/03/07 04:58:22;;;;;;;12.40;9.35;;;-1.00;95.70;;;;;;6126239;23;20595;-86
2022/03/07 05:00:48;;;;;;;12.67;9.00;;;-1.00;96.00;;;;;;6126432;23;20196;-86
2022/03/07 05:03:16;;;;;;;13.53;9.80;;;-0.90;96.00;;;;;;6127425;23;20651;-85
2022/03/07 05:05:44;;;;;;;14.07;10.10;;;-1.00;96.00;;;;;;6126296;23;20650;-85
2022/03/07 05:08:10;;;;;;;12.02;10.02;;;-1.00;96.20;;;;;;6125130;23;20462;-86
2022/03/07 05:10:35;;;;;;;15.33;9.20;;;-1.10;96.40;;;;;;6127049;23;20473;-84
2022/03/07 05:13:01;;;;;;;12.20;9.33;;;-1.00;96.60;;;;;;6128605;23;20484;-85
2022/03/07 05:15:26;;;;;;;12.40;10.17;;;-1.00;96.40;;;;;;6125482;23;20203;-85
2022/03/07 05:17:54;;;;;;;12.27;10.00;;;-1.00;96.40;;;;;;6129353;23;20160;-84
2022/03/07 05:20:21;;;;;;;12.18;9.40;;;-1.00;96.50;;;;;;6126928;23;20658;-84
2022/03/07 05:22:47;;;;;;;13.50;10.27;;;-0.90;96.50;;;;;;6126181;23;20167;-85
2022/03/07 05:25:14;;;;;;;12.73;10.27;;;-1.00;96.30;;;;;;6123562;23;20583;-85
2022/03/07 05:27:40;;;;;;;12.13;9.43;;;-0.90;96.40;;;;;;6125392;23;20176;-86
2022/03/07 05:30:07;;;;;;;13.30;9.43;;;-0.90;96.40;;;;;;6124876;23;20161;-85
2022/03/07 05:32:36;;;;;;;13.73;9.17;;;-1.00;96.60;;;;;;6124778;23;20198;-84
2022/03/07 05:35:03;;;;;;;13.07;8.70;;;-0.90;96.60;;;;;;6127461;23;20837;-81
2022/03/07 05:37:29;;;;;;;13.73;10.20;;;-0.90;96.50;;;;;;6128551;23;20458;-83
2022/03/07 05:40:03;;;;;;;14.43;10.23;;;-0.90;96.30;;;;;;6128324;23;20911;-83
2022/03/07 05:42:31;;;;;;;13.15;9.80;;;-1.00;96.60;;;;;;6125554;23;20195;-86
2022/03/07 05:44:57;;;;;;;12.37;9.63;;;-1.00;96.70;;;;;;6132213;23;20188;-85
2022/03/07 05:47:22;;;;;;;16.70;11.37;;;-1.00;96.50;;;;;;6128872;23;20190;-86
2022/03/07 05:49:48;;;;;;;16.97;10.30;;;-0.90;96.50;;;;;;6129839;23;20492;-86
2022/03/07 05:52:13;;;;;;;14.03;8.70;;;-0.90;96.50;;;;;;6127910;23;20160;-86
2022/03/07 05:54:39;;;;;;;12.10;9.50;;;-0.90;96.30;;;;;;6128019;23;20643;-85
2022/03/07 05:57:04;;;;;;;13.33;9.17;;;-0.90;96.40;;;;;;6127968;23;20636;-85
2022/03/07 05:59:30;;;;;;;12.03;9.20;;;-0.90;96.30;;;;;;6131265;23;20754;-85
2022/03/07 06:01:56;;;;;;;13.10;9.90;;;-1.00;96.50;;;;;;6127824;23;20227;-85
2022/03/07 06:04:22;;;;;;;11.90;9.17;;;-0.90;96.80;;;;;;6129782;23;20161;-86
2022/03/07 06:06:47;;;;;;;15.67;9.87;;;-0.90;96.60;;;;;;6127803;23;20203;-87
2022/03/07 06:09:13;;;;;;;12.30;9.40;;;-0.90;96.50;;;;;;6130561;23;20388;-84
2022/03/07 06:11:39;;;;;;;14.63;10.17;;;-1.10;96.90;;;;;;6105733;23;20255;-83
2022/03/07 06:14:05;;;;;;;14.73;9.23;;;-1.00;97.30;;;;;;6129997;23;20156;-84
2022/03/07 06:16:30;;;;;;;13.87;9.30;;;-1.00;97.60;;;;;;6129278;23;20396;-83
2022/03/07 06:18:58;;;;;;;12.20;9.03;;;-1.00;97.70;;;;;;6124996;23;20654;-81
2022/03/07 06:21:27;;;;;;;13.30;9.95;;;-0.90;97.20;;;;;;6132941;23;20188;-82
2022/03/07 06:23:53;;;;;;;13.93;9.90;;;-1.00;97.30;;;;;;6128497;23;20242;-83
2022/03/07 06:26:18;;;;;;;11.40;9.20;;;-1.00;97.70;;;;;;6130018;23;20802;-83
2022/03/07 06:28:44;;;;;;;15.17;10.03;;;-0.80;97.60;;;;;;6134344;23;20587;-85
2022/03/07 06:31:13;;;;;;;11.47;9.60;;;-0.70;97.30;;;;;;6130484;23;20171;-84
2022/03/07 06:33:42;;;;;;;12.67;9.70;;;-0.70;97.10;;;;;;6128138;23;20244;-84
2022/03/07 06:36:18;;;;;;;14.50;10.00;;;-0.70;97.40;;;;;;6131291;23;20407;-85
2022/03/07 06:38:44;;;;;;;13.20;9.67;;;-0.70;97.40;;;;;;6133434;23;20847;-84
2022/03/07 06:41:09;;;;;;;14.57;10.23;;;-0.50;97.40;;;;;;6129699;23;20442;-84
2022/03/07 06:43:36;;;;;;;14.37;10.13;;;-0.60;97.60;;;;;;6134099;23;20707;-84
2022/03/07 06:46:01;;;;;;;16.20;10.50;;;-0.50;97.80;;;;;;6130949;23;20214;-84
2022/03/07 06:48:27;;;;;;;11.60;9.37;;;-0.50;97.80;;;;;;6127138;23;20901;-85
2022/03/07 06:51:05;;;;;;;13.33;11.00;;;-0.50;97.90;;;;;;6126920;23;20251;-86
2022/03/07 06:53:32;;;;;;;18.50;10.07;;;-0.40;97.60;;;;;;6130119;23;20152;-84
2022/03/07 06:55:58;;;;;;;12.90;9.73;;;-0.40;97.30;;;;;;6127680;23;20438;-85
2022/03/07 06:58:24;;;;;;;13.33;10.00;;;-0.40;97.50;;;;;;6158768;23;20384;-84
2022/03/07 07:00:55;;;;;;;20.23;14.77;;;-0.40;97.50;;;;;;6131840;23;20505;-85
2022/03/07 07:03:25;;;;;;;16.30;11.00;;;-0.40;97.50;;;;;;6129686;23;20548;-85
2022/03/07 07:06:03;;;;;;;11.77;9.83;;;-0.40;97.40;;;;;;6107069;23;20403;-84
2022/03/07 07:08:32;;;;;;;12.57;9.77;;;-0.40;97.30;;;;;;6147632;23;20388;-85
2022/03/07 07:10:58;;;;;;;12.97;9.43;;;-0.30;97.20;;;;;;6131582;23;20396;-86
2022/03/07 07:13:23;;;;;;;14.73;9.70;;;-0.20;97.50;;;;;;6131693;23;20394;-83
2022/03/07 07:15:55;;;;;;;13.27;9.60;;;-0.10;97.50;;;;;;6126869;23;20172;-83
2022/03/07 07:18:24;;;;;;;17.40;9.93;;;-0.20;97.40;;;;;;6128464;23;20149;-84
2022/03/07 07:20:51;;;;;;;12.90;9.73;;;-0.10;97.50;;;;;;6131490;23;20454;-83
2022/03/07 07:23:21;;;;;;;15.00;10.10;;;-0.20;97.20;;;;;;6130383;23;20395;-84
2022/03/07 07:25:47;;;;;;;11.00;8.90;;;-0.20;97.50;;;;;;6132150;23;20470;-84
2022/03/07 07:28:13;;;;;;;12.25;8.65;;;-0.10;97.50;;;;;;6126883;23;20428;-84
2022/03/07 07:30:39;;;;;;;16.30;10.43;;;-0.10;97.10;;;;;;6127721;23;20168;-85
2022/03/07 07:33:06;;;;;;;12.83;9.33;;;0.00;97.80;;;;;;6129884;23;20392;-84
2022/03/07 07:35:33;;;;;;;14.40;10.20;;;0.10;97.30;;;;;;6127922;23;20171;-84
2022/03/07 07:38:00;;;;;;;11.70;8.90;;;0.30;97.30;;;;;;6131217;23;20392;-84
2022/03/07 07:40:26;;;;;;;13.27;9.13;;;0.40;96.70;;;;;;6131198;23;20483;-83
2022/03/07 07:42:54;;;;;;;13.83;9.00;;;0.40;96.50;;;;;;6131076;23;20873;-83
2022/03/07 07:45:20;;;;;;;13.20;9.13;;;0.50;96.20;;;;;;6130626;23;20420;-84
2022/03/07 07:47:45;;;;;;;12.53;9.43;;;0.50;96.30;;;;;;6131282;23;20426;-85
2022/03/07 07:50:17;;;;;;;11.53;9.17;;;0.70;97.00;;;;;;6128985;23;20167;-84
2022/03/07 07:52:57;;;;;;;13.57;9.77;;;0.70;95.90;;;;;;6129022;23;20159;-86
2022/03/07 07:55:25;;;;;;;12.53;9.07;;;0.80;96.00;;;;;;6131046;23;20392;-83
2022/03/07 07:58:02;;;;;;;11.90;8.63;;;0.80;95.80;;;;;;6130719;23;20402;-91
2022/03/07 08:00:46;;;;;;;12.07;9.77;;;0.70;96.10;;;;;;6126576;23;20861;-86
2022/03/07 08:03:12;;;;;;;10.33;8.53;;;0.80;95.80;;;;;;6130961;23;20379;-86
2022/03/07 08:05:38;;;;;;;11.70;9.10;;;1.00;95.90;;;;;;6125299;23;21031;-85
2022/03/07 08:08:03;;;;;;;12.90;9.30;;;1.10;94.80;;;;;;6128250;23;20156;-85
2022/03/07 08:10:29;;;;;;;11.23;9.17;;;1.20;94.80;;;;;;6131463;23;20495;-85
2022/03/07 08:12:55;;;;;;;14.20;10.30;;;1.30;94.90;;;;;;6128963;23;20698;-84
2022/03/07 08:15:20;;;;;;;11.10;8.60;;;1.40;94.30;;;;;;6128635;23;20271;-85
2022/03/07 08:17:58;;;;;;;13.27;8.80;;;1.40;94.40;;;;;;6139684;23;20227;-86
2022/03/07 08:20:32;;;;;;;12.73;9.67;;;1.50;94.50;;;;;;6159700;23;20726;-85
2022/03/07 08:22:58;;;;;;;15.30;9.93;;;1.70;94.30;;;;;;6128752;23;20490;-85
2022/03/07 08:25:24;;;;;;;11.80;9.63;;;1.90;93.60;;;;;;6133430;23;20478;-85
2022/03/07 08:27:50;;;;;;;13.33;9.13;;;1.60;92.60;;;;;;6132130;23;20514;-86
2022/03/07 08:30:20;;;;;;;14.40;9.77;;;1.50;92.70;;;;;;6130759;23;20531;-86
2022/03/07 08:32:46;;;;;;;12.70;10.20;;;1.50;92.60;;;;;;6129888;23;20400;-84
2022/03/07 08:35:15;;;;;;;13.03;9.40;;;1.60;92.60;;;;;;6129505;23;20998;-83
2022/03/07 08:37:48;;;;;;;13.60;10.23;;;1.70;92.50;;;;;;6133147;23;20586;-84
2022/03/07 08:40:15;;;;;;;14.03;9.43;;;2.00;92.00;;;;;;6132523;23;20416;-85
2022/03/07 08:42:42;;;;;;;11.27;8.73;;;1.80;91.50;;;;;;6130434;23;20731;-84
2022/03/07 08:45:09;;;;;;;12.23;9.30;;;2.10;91.20;;;;;;6129520;23;20396;-84
2022/03/07 08:47:37;;;;;;;12.10;10.03;;;2.20;91.30;;;;;;6126736;23;20786;-86
2022/03/07 08:50:05;;;;;;;12.03;9.20;;;2.40;91.40;;;;;;6130115;23;20388;-86
2022/03/07 08:52:31;;;;;;;12.40;9.37;;;2.40;90.90;;;;;;6129322;23;21100;-87
2022/03/07 08:54:59;;;;;;;12.47;10.30;;;2.50;90.40;;;;;;6131482;23;20466;-88
2022/03/07 08:57:25;;;;;;;10.70;8.47;;;2.60;90.10;;;;;;6135860;23;20160;-88
2022/03/07 08:59:50;;;;;;;11.70;9.43;;;3.00;91.10;;;;;;6127900;23;20419;-86
2022/03/07 09:02:16;;;;;;;12.83;9.70;;;3.00;89.70;;;;;;6133013;23;20164;-87
2022/03/07 09:04:44;;;;;;;12.30;9.33;;;2.40;87.80;;;;;;6131304;23;20662;-87
2022/03/07 09:07:10;;;;;;;12.30;9.33;;;2.10;89.10;;;;;;6134553;23;20187;-85
2022/03/07 09:09:36;;;;;;;10.37;9.37;;;2.10;90.20;;;;;;6130004;23;20519;-85
2022/03/07 09:12:03;;;;;;;13.97;10.10;;;1.90;90.50;;;;;;6134284;23;20399;-85
2022/03/07 09:14:29;;;;;;;12.60;9.23;;;1.80;90.90;;;;;;6133037;23;20383;-85
2022/03/07 09:16:55;;;;;;;13.60;9.20;;;1.90;91.30;;;;;;6130274;23;20396;-86
2022/03/07 09:19:21;;;;;;;10.83;9.50;;;2.20;91.20;;;;;;6131658;23;20547;-87
2022/03/07 09:21:47;;;;;;;11.73;10.20;;;2.80;91.00;;;;;;6130209;23;20493;-87
2022/03/07 09:24:15;;;;;;;12.37;9.90;;;3.30;90.10;;;;;;6128130;23;20591;-86
2022/03/07 09:26:43;;;;;;;12.33;10.73;;;3.40;87.10;;;;;;6128668;23;20739;-86
2022/03/07 09:29:10;;;;;;;11.57;10.37;;;3.60;86.80;;;;;;6136026;23;20185;-86
2022/03/07 09:31:36;;;;;;;13.30;10.50;;;4.00;86.40;;;;;;6134522;23;20407;-84
2022/03/07 09:34:02;;;;;;;11.37;10.13;;;3.80;86.70;;;;;;6131019;23;20397;-87
2022/03/07 09:36:28;;;;;;;11.63;9.93;;;3.90;87.00;;;;;;6129269;23;20627;-90
2022/03/07 09:38:54;;;;;;;13.60;11.40;;;4.10;86.80;;;;;;6135531;23;20390;-87
2022/03/07 09:41:19;;;;;;;12.03;10.73;;;4.30;85.40;;;;;;6134628;23;20981;-86
2022/03/07 09:43:52;;;;;;;13.10;10.47;;;4.40;84.40;;;;;;6129836;23;20238;-86
2022/03/07 09:46:21;;;;;;;11.23;10.03;;;5.10;83.00;;;;;;6122099;23;20792;-86
2022/03/07 09:48:47;;;;;;;12.17;10.57;;;5.20;79.60;;;;;;6127706;23;20399;-86
2022/03/07 09:51:13;;;;;;;15.43;9.87;;;5.30;80.80;;;;;;6127905;23;20395;-85
2022/03/07 09:53:38;;;;;;;11.90;10.33;;;5.10;83.30;;;;;;6127517;23;20225;-85
2022/03/07 09:56:07;;;;;;;13.50;10.37;;;5.40;80.50;;;;;;6132232;23;20164;-85
2022/03/07 09:58:32;;;;;;;12.67;11.00;;;4.90;79.90;;;;;;6129799;23;20191;-85
2022/03/07 10:01:27;;;;;;;11.93;10.60;;;4.20;81.90;;;;;;6134268;23;20502;-86
2022/03/07 10:04:11;;;;;;;12.17;9.80;;;4.60;81.80;;;;;;6127967;23;20163;-86
2022/03/07 10:06:40;;;;;;;12.33;10.50;;;4.30;81.70;;;;;;6129747;23;20398;-84
2022/03/07 10:09:06;;;;;;;12.57;11.00;;;3.70;82.10;;;;;;6131368;23;20399;-84
2022/03/07 10:11:33;;;;;;;12.40;10.63;;;3.50;84.70;;;;;;6129657;23;20389;-85
2022/03/07 10:14:02;;;;;;;15.40;11.70;;;3.80;83.90;;;;;;6135871;23;20570;-84
2022/03/07 10:16:44;;;;;;;13.80;10.60;;;4.60;85.30;;;;;;6137920;23;20411;-84
2022/03/07 10:19:28;;;;;;;10.40;9.00;;;5.10;81.90;;;;;;6139439;23;20641;-84
2022/03/07 10:21:54;;;;;;;11.47;10.07;;;5.30;80.60;;;;;;6138489;23;20493;-86
2022/03/07 10:24:32;;;;;;;12.43;9.80;;;5.60;82.00;;;;;;6139995;23;20934;-84
2022/03/07 10:26:58;;;;;;;11.30;9.63;;;6.00;77.90;;;;;;6139644;23;20568;-85
2022/03/07 10:29:26;;;;;;;11.47;10.27;;;6.00;79.20;;;;;;6137472;23;20396;-84
2022/03/07 10:31:52;;;;;;;11.93;10.07;;;5.20;77.00;;;;;;6139665;23;20160;-85
2022/03/07 10:34:21;;;;;;;11.60;10.50;;;5.00;79.30;;;;;;6137835;23;20443;-85
2022/03/07 10:36:54;;;;;;;12.33;10.93;;;5.80;79.10;;;;;;6166121;23;20164;-86
2022/03/07 10:39:26;;;;;;;12.10;10.23;;;6.00;75.10;;;;;;6143885;23;20443;-86
2022/03/07 10:41:51;;;;;;;12.40;10.87;;;5.90;75.00;;;;;;6151195;23;20991;-87
2022/03/07 10:44:25;;;;;;;14.87;12.53;;;6.20;75.60;;;;;;6149400;23;20393;-86
2022/03/07 10:46:51;;;;;;;15.00;12.10;;;6.40;76.80;;;;;;6142667;23;20156;-86
2022/03/07 10:49:18;;;;;;;13.23;11.93;;;6.00;74.60;;;;;;6142031;23;20738;-86
2022/03/07 10:51:54;;;;;;;11.07;9.90;;;6.10;76.60;;;;;;6139896;23;20161;-85
2022/03/07 10:54:29;;;;;;;11.87;10.37;;;6.60;76.50;;;;;;6140721;23;20847;-86
2022/03/07 10:56:55;;;;;;;11.70;10.30;;;6.70;73.60;;;;;;6137919;23;20380;-86
2022/03/07 10:59:33;;;;;;;10.23;9.23;;;6.40;72.60;;;;;;6137222;23;20391;-86
2022/03/07 11:02:10;;;;;;;11.20;10.00;;;6.80;72.50;;;;;;6138064;23;20455;-86
2022/03/07 11:04:39;;;;;;;11.97;10.77;;;6.80;72.20;;;;;;6136448;23;20378;-86
2022/03/07 11:07:08;;;;;;;12.27;10.90;;;6.80;70.80;;;;;;6164910;23;20677;-87
2022/03/07 11:09:34;;;;;;;13.10;11.00;;;6.70;70.00;;;;;;6137079;23;20437;-86
2022/03/07 11:12:00;;;;;;;13.40;12.00;;;6.80;73.00;;;;;;6137548;23;20393;-87
2022/03/07 11:14:27;;;;;;;10.90;9.80;;;6.70;71.60;;;;;;6136048;23;20400;-86
2022/03/07 11:16:56;;;;;;;12.10;10.60;;;7.10;71.90;;;;;;6137840;23;20444;-86
2022/03/07 11:19:26;;;;;;;11.00;9.90;;;6.90;70.90;;;;;;6137405;23;21015;-86
2022/03/07 11:21:53;;;;;;;10.90;9.80;;;7.30;69.90;;;;;;6136425;23;20926;-87
2022/03/07 11:24:22;;;;;;;13.30;10.83;;;7.60;66.70;;;;;;6139346;23;20397;-88
2022/03/07 11:26:51;;;;;;;12.10;10.90;;;7.40;68.00;;;;;;6151531;23;20409;-87
2022/03/07 11:29:18;;;;;;;11.53;10.33;;;7.50;67.30;;;;;;6147073;23;20409;-87
2022/03/07 11:31:45;;;;;;;12.60;10.20;;;7.20;68.00;;;;;;6136330;23;20478;-86
2022/03/07 11:34:12;;;;;;;10.67;9.67;;;7.10;68.50;;;;;;6131973;23;20395;-87
2022/03/07 11:36:42;;;;;;;19.50;10.00;;;7.20;65.60;;;;;;6131864;23;20586;-88
2022/03/07 11:39:13;;;;;;;10.90;9.30;;;6.20;66.10;;;;;;6132163;23;20491;-87
2022/03/07 11:41:44;;;;;;;13.07;10.17;;;6.20;68.80;;;;;;6127939;23;20436;-87
2022/03/07 11:44:15;;;;;;;11.10;9.70;;;6.60;68.60;;;;;;6129297;23;20538;-86
2022/03/07 11:46:47;;;;;;;11.20;10.10;;;6.90;68.50;;;;;;6129570;23;20409;-87
2022/03/07 11:49:31;;;;;;;11.50;10.30;;;7.10;66.20;;;;;;6129814;23;20383;-87
2022/03/07 11:52:03;;;;;;;11.70;10.40;;;7.40;65.80;;;;;;6130909;23;20412;-86
2022/03/07 11:54:29;;;;;;;11.37;10.20;;;7.80;68.40;;;;;;6126882;23;20376;-86
2022/03/07 11:57:11;;;;;;;11.97;10.87;;;8.00;63.20;;;;;;6129288;23;20913;-87
2022/03/07 11:59:37;;;;;;;11.97;10.77;;;8.20;65.80;;;;;;6130359;23;20392;-86
2022/03/07 12:02:04;;;;;;;13.30;11.10;;;8.10;60.90;;;;;;6132157;23;20865;-88
2022/03/07 12:04:52;;;;;;;11.73;10.53;;;8.10;60.40;;;;;;6132084;23;20476;-86
2022/03/07 12:07:28;;;;;;;13.30;10.90;;;8.40;61.00;;;;;;6132398;23;20388;-88
2022/03/07 12:10:05;;;;;;;12.30;11.10;;;8.50;59.90;;;;;;6133867;23;20465;-87
2022/03/07 12:12:31;;;;;;;11.53;10.43;;;8.10;59.10;;;;;;6131127;23;20870;-88
2022/03/07 12:15:11;;;;;;;11.83;10.70;;;8.20;60.60;;;;;;6129435;23;20400;-87
2022/03/07 12:17:37;;;;;;;12.07;10.87;;;7.90;59.80;;;;;;6133018;23;20157;-89
2022/03/07 12:20:04;;;;;;;15.40;11.03;;;7.90;60.30;;;;;;6131206;23;20922;-87
2022/03/07 12:22:32;;;;;;;10.97;9.93;;;8.10;60.60;;;;;;6129838;23;20396;-87
2022/03/07 12:25:12;;;;;;;11.37;10.27;;;8.00;59.20;;;;;;6156012;23;20853;-87
2022/03/07 12:27:39;;;;;;;12.50;11.30;;;8.10;62.20;;;;;;6132474;23;20418;-88
2022/03/07 12:30:09;;;;;;;13.23;10.70;;;8.10;59.70;;;;;;6130736;23;20242;-87
2022/03/07 12:32:38;;;;;;;12.70;10.27;;;8.20;59.90;;;;;;6134039;23;20874;-86
2022/03/07 12:35:05;;;;;;;12.40;11.17;;;8.40;60.50;;;;;;6132014;23;20392;-86
2022/03/07 12:37:31;;;;;;;11.80;10.60;;;8.00;60.80;;;;;;6131042;23;20873;-87
2022/03/07 12:39:59;;;;;;;12.60;11.07;;;8.30;58.80;;;;;;6134034;23;21210;-88
2022/03/07 12:42:32;;;;;;;11.70;10.60;;;8.40;60.30;;;;;;6132809;23;20215;-87
2022/03/07 12:45:00;;;;;;;11.70;10.50;;;8.50;58.10;;;;;;6130839;23;20431;-86
2022/03/07 12:47:52;;;;;;;11.63;10.53;;;8.20;57.70;;;;;;6132714;23;20446;-87